Time;durP1;ratioP1;P1;durP2;ratioP2;P2;SDS_P1;SDS_P2;PMS_P1;PMS_P2;Temp;Humidity;BMP_temperature;BMP_pressure;BME280_temperature;BME280_humidity;BME280_pressure;Samples;Min_cycle;Max_cycle;Signal;HPM_P1;HPM_P2
2022/06/23 00:01:01;;;;;;;2.03;1.80;;;;;;;23.74;47.37;99285.75;4423675;32;33820;-65
2022/06/23 00:03:33;;;;;;;2.62;2.10;;;;;;;23.46;47.39;99288.44;4412074;32;33620;-68
2022/06/23 00:06:04;;;;;;;2.37;1.62;;;;;;;23.42;47.88;99295.81;4394834;32;33310;-71
2022/06/23 00:08:42;;;;;;;1.83;1.65;;;;;;;23.47;47.76;99301.91;4406419;32;33718;-70
2022/06/23 00:11:22;;;;;;;2.65;1.87;;;;;;;23.62;47.81;99299.59;4406718;32;34262;-67
2022/06/23 00:13:51;;;;;;;2.30;1.85;;;;;;;23.38;47.69;99300.41;4407996;32;34159;-68
2022/06/23 00:16:24;;;;;;;2.45;1.90;;;;;;;23.47;47.71;99301.09;4407786;32;32993;-67
2022/06/23 00:18:52;;;;;;;2.30;1.80;;;;;;;22.97;49.17;99310.47;4407497;32;34055;-67
2022/06/23 00:21:27;;;;;;;2.15;1.87;;;;;;;22.10;50.71;99314.84;4406371;32;34997;-67
2022/06/23 00:24:01;;;;;;;2.83;1.80;;;;;;;22.38;50.74;99317.88;4406841;32;33801;-67
2022/06/23 00:26:31;;;;;;;3.22;1.87;;;;;;;22.53;50.77;99306.19;4406886;32;33385;-67
2022/06/23 00:29:02;;;;;;;2.22;1.83;;;;;;;21.93;52.50;99313.00;4406477;32;33984;-65
2022/06/23 00:31:38;;;;;;;4.03;2.03;;;;;;;22.12;52.43;99331.88;4407202;32;33815;-67
2022/06/23 00:34:23;;;;;;;2.30;1.73;;;;;;;21.40;53.07;99329.00;4406615;32;34001;-66
2022/06/23 00:36:54;;;;;;;;;;;;;;;21.91;51.09;99324.38;4408148;32;33933;-70
2022/06/23 00:39:24;;;;;;;3.20;1.80;;;;;;;21.73;51.04;99328.41;4406551;32;33724;-67
2022/06/23 00:41:52;;;;;;;5.37;2.12;;;;;;;21.69;50.24;99319.97;4407518;32;35009;-67
2022/06/23 00:44:30;;;;;;;2.70;1.90;;;;;;;21.75;50.37;99326.12;4406728;32;34645;-68
2022/06/23 00:47:02;;;;;;;2.20;1.70;;;;;;;21.55;48.58;99337.91;4406023;32;34468;-66
2022/06/23 00:49:32;;;;;;;2.20;1.80;;;;;;;21.73;48.20;99339.44;4406402;32;33980;-72
2022/06/23 00:52:15;;;;;;;4.22;1.52;;;;;;;21.40;48.50;99344.75;4407491;32;34363;-66
2022/06/23 00:54:47;;;;;;;2.40;1.60;;;;;;;21.50;45.21;99342.47;4406736;32;34099;-65
2022/06/23 00:57:30;;;;;;;2.12;1.50;;;;;;;21.30;45.79;99351.47;4407644;32;33562;-67
2022/06/23 01:00:09;;;;;;;1.85;1.50;;;;;;;21.54;43.79;99358.38;4406012;32;34653;-66
2022/06/23 01:02:42;;;;;;;2.75;1.50;;;;;;;21.80;43.59;99363.78;4406186;32;34997;-67
2022/06/23 01:05:15;;;;;;;1.40;1.25;;;;;;;21.54;42.13;99363.91;4406269;32;34663;-67
2022/06/23 01:08:03;;;;;;;1.92;1.62;;;;;;;21.78;42.66;99358.56;4417703;32;33922;-65
2022/06/23 01:10:53;;;;;;;3.90;1.40;;;;;;;21.80;42.25;99361.00;4422752;32;33784;-66
2022/06/23 01:13:37;;;;;;;2.00;1.20;;;;;;;22.07;41.38;99362.44;4422960;32;34270;-67
2022/06/23 01:16:16;;;;;;;1.30;1.20;;;;;;;22.01;41.54;99355.50;4419004;32;33463;-66
2022/06/23 01:18:50;;;;;;;2.65;1.50;;;;;;;21.76;42.34;99360.06;4393622;32;33401;-66
2022/06/23 01:21:28;;;;;;;1.98;1.42;;;;;;;22.01;42.19;99359.09;4407227;32;34794;-66
2022/06/23 01:24:08;;;;;;;1.87;1.40;;;;;;;22.31;42.80;99362.66;4407751;32;34073;-66
2022/06/23 01:26:44;;;;;;;3.15;1.45;;;;;;;22.44;44.06;99357.16;4407386;32;34902;-68
2022/06/23 01:29:40;;;;;;;1.58;1.48;;;;;;;22.47;46.44;99364.81;4407133;32;33594;-69
2022/06/23 01:32:21;;;;;;;2.00;1.42;;;;;;;22.89;48.84;99373.03;4407240;32;33660;-68
2022/06/23 01:34:53;;;;;;;2.17;1.67;;;;;;;22.82;49.03;99372.78;4391915;32;35017;-72
2022/06/23 01:37:23;;;;;;;2.35;1.45;;;;;;;22.39;50.48;99371.22;4378817;32;34144;-73
2022/06/23 01:40:13;;;;;;;2.83;1.58;;;;;;;22.52;51.28;99368.16;4391712;32;33586;-69
2022/06/23 01:42:49;;;;;;;2.40;1.80;;;;;;;22.35;52.57;99376.59;4391584;32;34628;-69
2022/06/23 01:45:33;;;;;;;3.70;1.80;;;;;;;22.11;54.77;99383.53;4394158;32;34090;-69
2022/06/23 01:48:07;;;;;;;3.87;2.00;;;;;;;21.33;57.59;99366.53;4393493;32;34520;-70
2022/06/23 01:50:43;;;;;;;2.85;1.65;;;;;;;21.29;57.40;99353.41;4393389;32;33343;-69
2022/06/23 01:53:21;;;;;;;2.00;1.80;;;;;;;21.44;57.43;99352.06;4407268;32;34759;-69
2022/06/23 01:56:11;;;;;;;2.40;1.52;;;;;;;21.01;59.27;99363.22;4393703;32;35246;-69
2022/06/23 02:02:32;;;;;;;2.47;1.75;;;;;;;20.69;59.64;99360.69;4422044;32;33075;-70
2022/06/23 02:05:15;;;;;;;2.60;1.70;;;;;;;21.07;58.55;99361.91;4408780;32;33780;-69
2022/06/23 02:07:50;;;;;;;3.10;1.55;;;;;;;20.88;59.30;99357.56;4422237;32;34349;-71
2022/06/23 02:10:20;;;;;;;1.65;1.40;;;;;;;20.43;61.17;99370.84;4408386;32;33987;-72
2022/06/23 02:12:53;;;;;;;2.65;1.70;;;;;;;20.21;60.79;99374.56;4422192;32;33329;-69
2022/06/23 02:15:42;;;;;;;2.03;1.65;;;;;;;20.25;60.84;99362.56;4416760;32;33976;-72
2022/06/23 02:18:29;;;;;;;2.15;1.67;;;;;;;20.58;58.99;99364.91;4406679;32;33822;-70
2022/06/23 02:20:56;;;;;;;1.60;1.35;;;;;;;20.41;59.13;99370.38;4407054;32;33830;-71
2022/06/23 02:23:23;;;;;;;1.98;1.70;;;;;;;20.66;58.17;99363.25;4407013;32;34408;-70
2022/06/23 02:26:40;;;;;;;2.67;1.62;;;;;;;20.55;58.59;99368.25;4407215;32;34779;-72
2022/06/23 02:29:29;;;;;;;4.25;1.80;;;;;;;20.54;58.28;99365.81;4391834;32;34278;-70
2022/06/23 02:32:22;;;;;;;2.87;1.98;;;;;;;20.03;59.45;99368.22;4406632;32;34468;-67
2022/06/23 02:35:20;;;;;;;3.17;1.85;;;;;;;20.32;58.76;99359.34;4406973;32;34310;-66
2022/06/23 02:37:53;;;;;;;2.22;1.60;;;;;;;19.90;60.34;99367.22;4403525;32;33528;-68
2022/06/23 02:40:46;;;;;;;2.60;1.70;;;;;;;19.96;60.75;99376.16;4406594;32;34227;-67
2022/06/23 02:43:28;;;;;;;1.92;1.58;;;;;;;20.09;60.06;99386.22;4387887;32;33985;-67
2022/06/23 02:46:18;;;;;;;2.60;1.55;;;;;;;20.21;59.30;99394.66;4406742;32;33220;-67
2022/06/23 02:49:10;;;;;;;1.73;1.50;;;;;;;20.00;60.17;99412.91;4392077;32;33902;-69
2022/06/23 02:51:50;;;;;;;1.90;1.50;;;;;;;19.60;60.43;99399.16;4390527;32;34306;-74
2022/06/23 02:54:40;;;;;;;1.95;1.50;;;;;;;19.89;59.08;99393.13;4378047;32;34097;-77
2022/06/23 02:57:27;;;;;;;2.47;1.50;;;;;;;20.05;58.57;99402.56;4391582;32;33962;-71
2022/06/23 03:00:03;;;;;;;3.53;1.40;;;;;;;19.99;58.94;99409.34;4399079;32;33795;-70
2022/06/23 03:02:36;;;;;;;2.15;1.48;;;;;;;19.75;59.63;99414.47;4406479;32;34929;-70
2022/06/23 03:05:11;;;;;;;2.72;1.77;;;;;;;19.72;59.72;99420.59;4392908;32;33941;-72
2022/06/23 03:07:52;;;;;;;2.00;1.50;;;;;;;19.94;59.12;99414.22;4399781;32;33580;-73
2022/06/23 03:10:53;;;;;;;2.75;1.62;;;;;;;20.14;58.90;99415.56;4404917;32;34761;-72
2022/06/23 03:13:33;;;;;;;2.58;1.73;;;;;;;19.85;60.00;99416.94;4390207;32;33881;-75
2022/06/23 03:16:13;;;;;;;1.87;1.67;;;;;;;19.68;60.12;99426.72;4391095;32;34461;-68
2022/06/23 03:18:51;;;;;;;2.58;1.85;;;;;;;19.65;60.10;99432.88;4389658;32;33583;-69
2022/06/23 03:21:29;;;;;;;2.03;1.70;;;;;;;19.86;59.60;99435.06;4391353;32;34930;-76
2022/06/23 03:24:21;;;;;;;2.08;1.50;;;;;;;19.64;60.01;99435.94;4391177;32;35028;-73
2022/06/23 03:26:56;;;;;;;2.72;1.70;;;;;;;19.39;60.43;99446.47;4390220;32;33815;-74
2022/06/23 03:29:49;;;;;;;1.92;1.48;;;;;;;19.89;58.88;99439.94;4397072;32;34214;-75
2022/06/23 03:32:30;;;;;;;2.28;1.42;;;;;;;19.73;58.60;99445.06;4406192;32;33868;-69
2022/06/23 03:35:13;;;;;;;2.78;1.67;;;;;;;20.10;57.57;99436.59;4404904;32;35008;-72
2022/06/23 03:37:53;;;;;;;2.67;1.67;;;;;;;20.00;57.91;99432.19;4406016;32;34865;-76
2022/06/23 03:43:53;;;;;;;3.72;1.60;;;;;;;19.86;59.21;99435.88;4404341;32;34807;-69
2022/06/23 03:46:25;;;;;;;4.50;1.67;;;;;;;20.06;59.46;99447.44;4402959;32;34046;-69
2022/06/23 03:48:57;;;;;;;1.92;1.65;;;;;;;19.90;59.59;99447.06;4401890;32;34961;-73
2022/06/23 03:51:32;;;;;;;2.25;1.77;;;;;;;19.83;61.57;99447.53;4389310;32;34399;-71
2022/06/23 03:54:14;;;;;;;2.33;1.67;;;;;;;19.94;60.75;99452.75;4389167;32;34707;-68
2022/06/23 03:56:46;;;;;;;2.15;1.70;;;;;;;19.86;59.22;99465.34;4389670;32;34112;-72
2022/06/23 03:59:17;;;;;;;2.05;1.50;;;;;;;20.22;58.36;99465.16;4398582;32;33623;-71
2022/06/23 04:01:49;;;;;;;2.00;1.60;;;;;;;20.17;60.78;99470.81;4404875;32;33422;-71
2022/06/23 04:04:21;;;;;;;2.05;1.45;;;;;;;20.11;63.16;99476.78;4405750;32;34065;-69
2022/06/23 04:06:50;;;;;;;2.15;1.73;;;;;;;20.40;62.42;99473.47;4412600;32;34071;-72
2022/06/23 04:09:19;;;;;;;4.05;1.60;;;;;;;20.35;59.16;99479.94;4408943;32;33861;-68
2022/06/23 04:12:04;;;;;;;1.98;1.58;;;;;;;20.59;57.14;99478.72;4409473;32;33468;-71
2022/06/23 04:14:38;;;;;;;2.67;1.83;;;;;;;21.10;57.87;99488.13;4408369;32;34313;-70
2022/06/23 04:17:17;;;;;;;2.62;1.70;;;;;;;21.50;57.06;99485.19;4423145;32;34211;-70
2022/06/23 04:19:50;;;;;;;3.42;1.77;;;;;;;21.43;55.12;99484.88;4408647;32;34744;-69
2022/06/23 04:22:31;;;;;;;2.03;1.40;;;;;;;21.80;54.13;99491.59;4409090;32;33593;-68
2022/06/23 04:25:01;;;;;;;1.80;1.62;;;;;;;22.18;53.40;99490.81;4409558;32;34835;-69
2022/06/23 04:27:38;;;;;;;2.58;1.62;;;;;;;21.99;54.99;99490.41;4396827;32;34525;-70
2022/06/23 04:30:13;;;;;;;2.00;1.48;;;;;;;22.10;51.94;99497.97;4407383;32;34765;-68
2022/06/23 04:32:41;;;;;;;2.05;1.50;;;;;;;22.42;51.95;99492.97;4388656;32;31893;-72
2022/06/23 04:35:16;;;;;;;1.95;1.55;;;;;;;22.47;52.14;99490.00;4400582;32;33756;-71
2022/06/23 04:38:10;;;;;;;2.15;1.52;;;;;;;22.52;54.81;99505.59;4406028;32;34853;-72
2022/06/23 04:40:41;;;;;;;2.27;1.57;;;;;;;22.40;55.66;99495.25;4407090;32;33953;-72
2022/06/23 04:43:19;;;;;;;3.00;1.77;;;;;;;22.84;52.92;99503.25;4397443;32;33252;-73
2022/06/23 04:46:21;;;;;;;2.22;1.48;;;;;;;22.75;54.57;99510.81;4407015;32;33892;-73
2022/06/23 04:48:57;;;;;;;2.47;1.58;;;;;;;23.12;52.38;99515.44;4386905;32;34977;-74
2022/06/23 04:51:38;;;;;;;2.85;1.60;;;;;;;23.36;52.01;99521.41;4393536;32;34108;-73
2022/06/23 04:54:08;;;;;;;2.55;1.65;;;;;;;23.45;53.51;99516.59;4393239;32;34518;-74
2022/06/23 04:56:43;;;;;;;2.92;1.60;;;;;;;23.74;51.63;99519.22;4414158;32;33506;-73
2022/06/23 04:59:32;;;;;;;3.33;1.70;;;;;;;23.33;47.49;99520.16;4391293;32;34192;-73
2022/06/23 05:02:24;;;;;;;2.15;1.62;;;;;;;23.41;51.39;99529.50;4406152;32;34918;-71
2022/06/23 05:05:08;;;;;;;2.00;1.60;;;;;;;23.67;46.24;99529.25;4412529;32;85149;-74
2022/06/23 05:07:45;;;;;;;1.60;1.30;;;;;;;22.16;46.51;99534.53;4400938;32;34925;-71
2022/06/23 05:10:58;;;;;;;1.65;1.30;;;;;;;22.72;45.07;99532.47;4406623;32;33826;-71
2022/06/23 05:13:30;;;;;;;4.12;1.23;;;;;;;22.54;46.30;99536.47;4344315;32;33550;-70
2022/06/23 05:16:07;;;;;;;2.12;1.50;;;;;;;22.36;45.38;99541.31;4355645;32;33523;-71
2022/06/23 05:18:43;;;;;;;2.40;1.42;;;;;;;22.86;43.45;99550.75;4383700;32;33984;-70
2022/06/23 05:21:17;;;;;;;2.58;1.58;;;;;;;22.91;43.37;99543.06;4395758;32;35014;-70
2022/06/23 05:23:59;;;;;;;2.20;1.40;;;;;;;23.33;44.61;99556.12;4393324;32;34001;-70
2022/06/23 05:26:30;;;;;;;2.47;1.48;;;;;;;22.90;41.53;99554.47;4402985;32;33480;-68
2022/06/23 05:29:02;;;;;;;1.92;1.40;;;;;;;23.89;41.55;99559.34;4408314;32;34076;-69
2022/06/23 05:31:35;;;;;;;2.00;1.37;;;;;;;24.21;41.17;99558.81;4396872;32;34184;-73
2022/06/23 05:34:17;;;;;;;2.85;1.30;;;;;;;24.19;42.68;99564.72;4377839;32;34674;-72
2022/06/23 05:37:05;;;;;;;2.20;1.30;;;;;;;24.23;41.70;99560.09;4391813;32;33128;-73
2022/06/23 05:39:36;;;;;;;1.92;1.30;;;;;;;24.79;38.06;99567.84;4377960;32;33873;-70
2022/06/23 05:42:12;;;;;;;1.92;1.42;;;;;;;24.64;37.58;99565.78;4389807;32;35245;-73
2022/06/23 05:44:44;;;;;;;1.42;1.20;;;;;;;24.90;38.43;99571.78;4395635;32;34363;-71
2022/06/23 05:47:12;;;;;;;1.87;1.40;;;;;;;25.14;35.15;99575.66;4392661;32;34135;-68
2022/06/23 05:49:44;;;;;;;2.30;1.37;;;;;;;24.95;36.13;99574.31;4406531;32;34094;-67
2022/06/23 05:52:29;;;;;;;1.52;1.23;;;;;;;24.60;32.87;99571.25;4392531;32;35111;-70
2022/06/23 05:55:02;;;;;;;1.92;1.20;;;;;;;24.64;34.67;99582.44;4395364;32;34162;-68
2022/06/23 05:57:54;;;;;;;1.10;0.95;;;;;;;25.17;34.10;99591.63;4408047;32;33684;-70
2022/06/23 06:00:30;;;;;;;1.23;1.12;;;;;;;24.97;33.25;99583.09;4396574;32;34665;-68
2022/06/23 06:03:23;;;;;;;3.12;1.40;;;;;;;25.78;30.99;99591.41;4390336;32;33883;-71
2022/06/23 06:05:54;;;;;;;2.55;1.30;;;;;;;25.60;30.93;99586.53;4397654;32;35279;-69
2022/06/23 06:12:14;;;;;;;2.08;1.27;;;;;;;25.28;32.32;99590.00;4406714;32;34564;-66
2022/06/23 06:14:48;;;;;;;1.80;1.15;;;;;;;25.30;32.37;99595.22;4393758;32;34204;-69
2022/06/23 06:17:24;;;;;;;1.80;1.15;;;;;;;25.35;30.95;99597.72;4391976;32;33696;-66
2022/06/23 06:19:54;;;;;;;2.17;1.30;;;;;;;25.93;30.36;99592.66;4390319;32;33941;-66
2022/06/23 06:22:46;;;;;;;3.20;1.40;;;;;;;25.84;30.37;99603.09;4399331;32;34681;-67
2022/06/23 06:25:23;;;;;;;1.62;1.30;;;;;;;25.83;30.68;99603.44;4404866;32;34336;-68
2022/06/23 06:27:51;;;;;;;1.60;1.17;;;;;;;25.95;30.12;99604.22;4405916;32;33516;-69
2022/06/23 06:30:29;;;;;;;1.98;1.23;;;;;;;26.14;29.50;99602.72;4405632;32;34108;-68
2022/06/23 06:32:57;;;;;;;2.10;1.20;;;;;;;25.54;31.47;99605.44;4402679;32;33926;-70
2022/06/23 06:35:35;;;;;;;1.23;1.12;;;;;;;25.68;30.24;99597.50;4392076;32;33968;-66
2022/06/23 06:38:08;;;;;;;1.67;1.10;;;;;;;25.38;30.70;99603.41;4402687;32;34615;-65
2022/06/23 06:40:38;;;;;;;1.62;1.23;;;;;;;25.75;30.10;99611.59;4404979;32;33545;-70
2022/06/23 06:43:12;;;;;;;1.40;1.10;;;;;;;25.67;29.13;99608.97;4406626;32;33782;-69
2022/06/23 06:45:41;;;;;;;1.37;1.20;;;;;;;26.26;29.92;99613.75;4405376;32;32892;-66
2022/06/23 06:48:28;;;;;;;1.20;1.10;;;;;;;25.87;28.86;99613.50;4404763;32;33932;-71
2022/06/23 06:51:00;;;;;;;3.85;1.30;;;;;;;26.43;29.95;99622.94;4405282;32;33542;-73
2022/06/23 06:53:58;;;;;;;1.65;1.20;;;;;;;26.64;29.86;99619.91;4405124;32;33869;-68
2022/06/23 06:56:47;;;;;;;1.23;1.08;;;;;;;26.38;29.95;99613.69;4404836;32;34826;-68
2022/06/23 06:59:17;;;;;;;3.62;1.23;;;;;;;26.34;29.29;99615.56;4404706;32;33939;-73
2022/06/23 07:01:53;;;;;;;2.12;1.27;;;;;;;26.09;29.99;99622.44;4404383;32;33495;-69
2022/06/23 07:04:27;;;;;;;1.37;1.17;;;;;;;26.53;29.62;99631.53;4399901;32;33584;-71
2022/06/23 07:07:02;;;;;;;2.12;1.30;;;;;;;26.42;29.93;99630.47;4410735;32;34745;-66
2022/06/23 07:10:03;;;;;;;1.20;1.10;;;;;;;26.23;28.89;99633.16;4403361;32;33734;-67
2022/06/23 07:12:33;;;;;;;1.37;1.20;;;;;;;26.92;28.91;99622.56;4403881;32;32932;-67
2022/06/23 07:15:39;;;;;;;2.10;1.42;;;;;;;26.46;28.59;99630.53;4403209;32;34656;-70
2022/06/23 07:18:19;;;;;;;2.62;1.30;;;;;;;25.80;30.03;99638.31;4403802;32;34183;-67
2022/06/23 07:20:55;;;;;;;2.53;1.58;;;;;;;25.81;30.27;99637.16;4405735;32;34021;-71
2022/06/23 07:24:16;;;;;;;1.62;1.15;;;;;;;25.86;30.36;99636.91;4403764;32;33422;-68
2022/06/23 07:30:10;;;;;;;2.42;1.20;;;;;;;26.18;29.28;99642.56;4525688;27;20385;-68
2022/06/23 07:32:44;;;;;;;1.50;1.25;;;;;;;26.04;31.00;99633.84;4420452;32;34534;-71
2022/06/23 07:35:32;;;;;;;2.03;1.30;;;;;;;26.06;30.46;99637.06;4420560;32;34273;-68
2022/06/23 07:38:13;;;;;;;1.67;1.12;;;;;;;25.67;29.63;99643.09;4384553;32;32228;-66
2022/06/23 07:41:09;;;;;;;2.87;1.25;;;;;;;26.08;31.05;99648.63;4410597;32;34971;-69
2022/06/23 07:43:44;;;;;;;2.72;1.35;;;;;;;26.34;28.52;99657.28;4421026;32;34933;-69
2022/06/23 07:46:12;;;;;;;1.27;1.08;;;;;;;26.48;29.89;99654.09;4422701;32;33488;-66
2022/06/23 07:48:41;;;;;;;1.42;1.20;;;;;;;26.08;28.96;99654.19;4408667;32;33894;-69
2022/06/23 07:51:10;;;;;;;1.50;1.10;;;;;;;26.01;30.25;99651.25;4422833;32;34276;-70
2022/06/23 07:53:41;;;;;;;1.60;1.10;;;;;;;26.49;31.18;99650.13;4422046;32;34677;-69
2022/06/23 07:56:12;;;;;;;1.45;1.15;;;;;;;26.44;29.44;99655.16;4422085;32;34040;-68
2022/06/23 07:58:44;;;;;;;2.30;1.15;;;;;;;27.13;29.07;99658.47;4407499;32;33646;-69
2022/06/23 08:01:18;;;;;;;2.25;1.35;;;;;;;26.86;30.33;99657.41;4414038;32;34219;-69
2022/06/23 08:03:58;;;;;;;1.65;1.12;;;;;;;27.29;28.75;99650.09;4409825;32;34428;-68
2022/06/23 08:06:26;;;;;;;2.58;1.10;;;;;;;27.52;28.55;99652.97;4423591;32;34720;-68
2022/06/23 08:08:57;;;;;;;1.90;1.30;;;;;;;26.79;28.38;99660.84;4408969;32;33973;-69
2022/06/23 08:14:36;;;;;;;1.10;1.00;;;;;;;26.62;27.95;99656.44;4422630;32;32558;-70
2022/06/23 08:17:08;;;;;;;1.75;1.17;;;;;;;27.16;27.54;99657.72;4409786;32;33396;-72
2022/06/23 08:19:41;;;;;;;1.67;1.20;;;;;;;27.66;27.54;99649.69;4409339;32;34330;-73
2022/06/23 08:22:16;;;;;;;1.25;1.10;;;;;;;27.66;27.14;99652.47;4423072;32;33853;-71
2022/06/23 08:24:48;;;;;;;2.95;1.83;;;;;;;26.75;29.25;99660.75;4409439;32;34486;-75
2022/06/23 08:27:38;;;;;;;2.25;1.20;;;;;;;26.11;28.74;99653.47;4411465;32;33541;-72
2022/06/23 08:30:10;;;;;;;1.40;1.17;;;;;;;26.77;30.05;99657.59;4395868;32;34631;-71
2022/06/23 08:32:39;;;;;;;1.52;1.10;;;;;;;26.73;29.43;99651.94;4409532;32;34068;-70
2022/06/23 08:35:12;;;;;;;0.93;0.90;;;;;;;26.84;31.09;99654.97;4423060;32;33879;-68
2022/06/23 08:37:46;;;;;;;1.75;1.42;;;;;;;26.37;30.04;99656.59;4409284;32;33727;-72
2022/06/23 08:40:34;;;;;;;1.30;1.10;;;;;;;26.60;31.16;99653.19;4408838;32;32972;-71
2022/06/23 08:43:11;;;;;;;1.50;1.17;;;;;;;27.62;30.67;99647.62;4402101;32;33966;-70
2022/06/23 08:45:54;;;;;;;1.58;1.00;;;;;;;27.65;30.60;99650.87;4422956;32;33775;-70
2022/06/23 08:48:33;;;;;;;1.87;1.33;;;;;;;27.04;27.66;99650.31;4408590;32;33513;-73
2022/06/23 08:51:07;;;;;;;2.12;1.20;;;;;;;26.49;28.16;99657.66;4408657;32;33845;-73
2022/06/23 08:54:01;;;;;;;1.65;1.30;;;;;;;26.91;29.07;99651.56;4409364;32;34028;-71
2022/06/23 08:57:00;;;;;;;3.40;1.27;;;;;;;26.16;29.53;99653.25;4393091;32;33717;-74
2022/06/23 08:59:35;;;;;;;1.87;1.30;;;;;;;27.05;27.68;99651.91;4401326;32;33005;-69
2022/06/23 09:02:22;;;;;;;1.20;1.08;;;;;;;27.70;27.75;99653.34;4396630;32;32984;-71
2022/06/23 09:05:27;;;;;;;2.22;1.23;;;;;;;27.48;26.05;99654.88;4392763;32;33606;-68
2022/06/23 09:08:05;;;;;;;1.87;1.25;;;;;;;27.17;26.71;99651.81;4393808;32;34848;-69
2022/06/23 09:11:01;;;;;;;2.37;1.08;;;;;;;26.97;27.38;99650.13;4405229;32;33309;-70
2022/06/23 09:14:03;;;;;;;1.40;1.30;;;;;;;26.97;26.67;99656.50;4401815;32;34924;-73
2022/06/23 09:16:45;;;;;;;1.70;1.20;;;;;;;26.98;27.39;99646.97;4422963;32;34008;-70
2022/06/23 09:19:31;;;;;;;1.90;1.42;;;;;;;27.56;27.83;99646.31;4422775;32;33986;-70
2022/06/23 09:22:28;;;;;;;1.50;1.30;;;;;;;27.93;26.20;99647.88;4422424;32;33459;-71
2022/06/23 09:24:58;;;;;;;2.22;1.00;;;;;;;28.47;27.40;99646.03;4408745;32;33889;-69
2022/06/23 09:27:35;;;;;;;1.52;1.30;;;;;;;27.67;26.45;99649.31;4409517;32;34931;-67
2022/06/23 09:30:27;;;;;;;2.92;1.00;;;;;;;27.78;26.64;99641.19;4408799;32;34076;-70
2022/06/23 09:33:28;;;;;;;2.20;1.23;;;;;;;27.34;27.21;99647.00;4415034;32;32973;-68
2022/06/23 09:36:25;;;;;;;2.00;1.25;;;;;;;27.78;25.57;99638.38;4422376;32;34574;-72
2022/06/23 09:39:07;;;;;;;1.67;1.12;;;;;;;27.46;27.16;99648.88;4422600;32;34420;-71
2022/06/23 09:42:32;;;;;;;4.72;1.30;;;;;;;27.93;28.08;99645.88;4422860;32;33732;-70
2022/06/23 09:45:49;;;;;;;1.08;0.90;;;;;;;28.47;26.87;99646.88;4374719;32;33444;-69
2022/06/23 09:48:43;;;;;;;2.70;1.10;;;;;;;28.52;26.23;99648.56;4403096;32;33726;-69
2022/06/23 09:51:34;;;;;;;1.20;1.00;;;;;;;29.03;24.80;99645.41;4422379;32;34065;-68
2022/06/23 09:54:17;;;;;;;1.55;1.20;;;;;;;29.14;25.49;99635.22;4408712;32;33231;-73
2022/06/23 09:56:53;;;;;;;1.70;1.40;;;;;;;27.97;23.89;99627.25;4408664;32;34407;-68
2022/06/23 09:59:43;;;;;;;1.27;1.17;;;;;;;28.36;24.70;99621.56;4408169;32;34266;-72
2022/06/23 10:02:41;;;;;;;1.83;1.00;;;;;;;28.42;25.27;99628.47;4421589;32;35101;-70
2022/06/23 10:05:28;;;;;;;1.65;1.20;;;;;;;28.72;24.44;99632.53;4422736;32;34102;-69
2022/06/23 10:08:04;;;;;;;1.83;1.20;;;;;;;28.99;24.96;99631.38;4422211;32;34314;-71
2022/06/23 10:10:53;;;;;;;1.80;1.10;;;;;;;29.23;22.92;99632.94;4422247;32;34913;-71
2022/06/23 10:13:49;;;;;;;1.12;1.00;;;;;;;29.14;24.26;99635.22;4422374;32;35677;-68
2022/06/23 10:16:47;;;;;;;1.70;1.27;;;;;;;29.55;24.69;99629.78;4408617;32;33469;-72
2022/06/23 10:19:53;;;;;;;2.80;1.40;;;;;;;28.97;23.88;99630.16;4422054;32;34123;-73
2022/06/23 10:22:31;;;;;;;1.00;0.90;;;;;;;28.84;23.48;99633.16;4408504;32;34916;-74
2022/06/23 10:25:28;;;;;;;1.35;1.10;;;;;;;29.42;21.96;99632.00;4422021;32;35050;-67
2022/06/23 10:28:19;;;;;;;2.00;0.98;;;;;;;28.48;23.83;99634.53;4421424;32;34193;-66
2022/06/23 10:30:46;;;;;;;1.55;1.00;;;;;;;29.04;23.68;99631.03;4421748;32;33522;-69
2022/06/23 10:33:42;;;;;;;1.62;1.00;;;;;;;28.84;23.34;99633.16;4420625;32;34040;-67
2022/06/23 10:36:31;;;;;;;3.20;1.30;;;;;;;29.10;24.00;99630.78;4407770;32;33892;-67
2022/06/23 10:39:28;;;;;;;1.55;1.00;;;;;;;29.84;21.78;99624.56;4421371;32;33618;-67
2022/06/23 10:42:18;;;;;;;2.62;1.02;;;;;;;28.34;23.70;99623.12;4407280;32;33440;-67
2022/06/23 10:44:55;;;;;;;1.65;1.08;;;;;;;28.91;22.87;99623.28;4408308;32;34748;-69
2022/06/23 10:47:40;;;;;;;1.23;1.10;;;;;;;28.86;21.87;99621.63;4420977;32;34243;-68
2022/06/23 10:50:14;;;;;;;1.62;1.30;;;;;;;28.96;22.18;99623.78;4406578;32;33809;-66
2022/06/23 10:53:23;;;;;;;1.77;1.30;;;;;;;28.87;21.91;99625.19;4406389;32;33241;-69
2022/06/23 10:56:08;;;;;;;1.92;1.27;;;;;;;28.70;22.62;99615.38;4412039;32;34326;-68
2022/06/23 10:58:48;;;;;;;1.10;1.00;;;;;;;28.19;22.58;99614.50;4421315;32;35082;-68
2022/06/23 11:01:22;;;;;;;1.30;1.08;;;;;;;28.48;22.69;99617.81;4421348;32;34093;-71
2022/06/23 11:04:14;;;;;;;1.75;1.20;;;;;;;28.52;23.09;99615.09;4421861;32;34282;-70
2022/06/23 11:07:05;;;;;;;1.48;0.90;;;;;;;28.68;21.61;99617.72;4419510;32;34762;-67
2022/06/23 11:10:02;;;;;;;1.42;1.00;;;;;;;28.62;22.33;99614.47;4392374;32;34143;-68
2022/06/23 11:12:44;;;;;;;2.25;1.02;;;;;;;28.54;21.41;99618.31;4407608;32;34597;-66
2022/06/23 11:15:18;;;;;;;1.83;1.17;;;;;;;28.46;22.75;99613.75;4409387;32;33436;-66
2022/06/23 11:17:55;;;;;;;1.05;0.85;;;;;;;28.32;21.32;99609.53;4409318;32;34753;-69
2022/06/23 11:20:41;;;;;;;1.20;0.90;;;;;;;28.51;22.80;99613.44;4409476;32;34059;-67
2022/06/23 11:23:20;;;;;;;2.45;1.00;;;;;;;29.01;21.51;99617.84;4423078;32;34123;-69
2022/06/23 11:26:05;;;;;;;1.77;1.00;;;;;;;29.03;21.32;99614.69;4422898;32;33486;-68
2022/06/23 11:28:59;;;;;;;5.28;1.00;;;;;;;28.42;20.83;99605.31;4408712;32;33587;-67
2022/06/23 11:31:35;;;;;;;1.20;1.10;;;;;;;29.07;21.97;99615.50;4385684;32;34923;-67
2022/06/23 11:34:23;;;;;;;1.35;1.00;;;;;;;28.59;23.41;99606.81;4408031;32;33249;-70
2022/06/23 11:37:19;;;;;;;1.10;0.90;;;;;;;29.00;22.55;99605.03;4418693;32;33522;-66
2022/06/23 11:40:10;;;;;;;1.10;1.00;;;;;;;28.58;21.26;99608.00;4409716;32;34437;-68
2022/06/23 11:42:56;;;;;;;1.42;0.73;;;;;;;29.42;20.99;99600.47;4409143;32;33854;-68
2022/06/23 11:45:33;;;;;;;4.20;1.20;;;;;;;29.35;21.14;99601.19;4423183;32;34096;-68
2022/06/23 11:48:08;;;;;;;1.37;1.00;;;;;;;29.84;19.97;99604.97;4422989;32;33303;-68
2022/06/23 11:50:39;;;;;;;1.08;0.95;;;;;;;29.32;21.24;99593.53;4394481;32;34710;-68
2022/06/23 11:53:49;;;;;;;1.75;1.00;;;;;;;29.48;20.56;99612.91;4414702;32;33795;-67
2022/06/23 11:56:41;;;;;;;1.42;1.05;;;;;;;29.60;21.10;99606.28;4423203;32;34587;-68
2022/06/23 11:59:30;;;;;;;2.20;0.98;;;;;;;29.81;21.88;99600.16;4422601;32;33395;-69
2022/06/23 12:02:18;;;;;;;1.77;1.10;;;;;;;29.94;20.89;99609.09;4422308;32;34497;-69
2022/06/23 12:05:05;;;;;;;1.12;1.05;;;;;;;29.77;21.21;99616.09;4421972;32;34191;-69
2022/06/23 12:07:57;;;;;;;2.30;1.02;;;;;;;29.51;21.78;99598.19;4420404;32;34160;-70
2022/06/23 12:10:28;;;;;;;2.95;1.00;;;;;;;29.86;20.06;99613.78;4409228;32;33427;-68
2022/06/23 12:12:58;;;;;;;1.50;0.95;;;;;;;30.34;22.61;99607.50;4408593;32;34011;-70
2022/06/23 12:15:32;;;;;;;1.55;1.00;;;;;;;29.07;20.92;99612.72;4408737;32;34150;-66
2022/06/23 12:18:13;;;;;;;2.45;1.00;;;;;;;28.48;21.26;99605.81;4422228;32;34825;-66
2022/06/23 12:20:50;;;;;;;2.72;0.90;;;;;;;28.12;21.84;99605.19;4408962;32;33884;-65
2022/06/23 12:23:30;;;;;;;1.58;1.02;;;;;;;28.65;20.74;99607.31;4407916;32;33930;-67
2022/06/23 12:26:19;;;;;;;1.12;0.90;;;;;;;28.98;22.36;99612.19;4393165;32;33894;-66
2022/06/23 12:28:50;;;;;;;1.20;1.05;;;;;;;29.36;22.21;99613.97;4390172;32;33681;-66
2022/06/23 12:31:44;;;;;;;3.67;1.00;;;;;;;29.65;22.66;99609.53;4404713;32;34320;-69
2022/06/23 12:34:38;;;;;;;;;;;;;;;29.60;21.07;99609.06;4405223;32;33951;-64
2022/06/23 12:37:15;;;;;;;2.28;0.90;;;;;;;29.33;21.55;99609.16;4403990;32;34932;-65
2022/06/23 12:39:52;;;;;;;1.83;1.00;;;;;;;29.50;20.36;99604.94;4407029;32;32565;-68
2022/06/23 12:42:28;;;;;;;1.67;1.00;;;;;;;29.13;22.44;99614.03;4400093;32;34200;-66
2022/06/23 12:45:08;;;;;;;1.15;0.90;;;;;;;28.52;21.98;99609.50;4390345;32;34601;-65
2022/06/23 12:48:00;;;;;;;2.50;0.98;;;;;;;28.99;22.69;99608.25;4405192;32;34159;-67
2022/06/23 12:50:58;;;;;;;2.53;1.00;;;;;;;29.41;22.01;99610.81;4418669;32;34077;-67
2022/06/23 12:54:01;;;;;;;1.20;1.00;;;;;;;29.76;23.56;99604.09;4412409;32;34196;-66
2022/06/23 12:56:33;;;;;;;2.55;1.10;;;;;;;30.35;20.58;99598.72;4391313;32;33547;-66